sensor_id;sensor_type;location;lat;lon;timestamp;pressure;altitude;pressure_sealevel;temperature;humidity
14882;BME280;7533;51.278;12.588;2022-10-03T00:03:19;100542.28;;;23.96;64.90
14882;BME280;7533;51.278;12.588;2022-10-03T00:08:40;100554.91;;;23.96;64.60
14882;BME280;7533;51.278;12.588;2022-10-03T00:13:54;100559.22;;;23.98;64.56
14882;BME280;7533;51.278;12.588;2022-10-03T00:19:05;100556.53;;;23.98;64.78
14882;BME280;7533;51.278;12.588;2022-10-03T00:24:22;100565.50;;;23.99;64.78
14882;BME280;7533;51.278;12.588;2022-10-03T00:29:43;100571.88;;;23.98;64.77
14882;BME280;7533;51.278;12.588;2022-10-03T00:35:01;100570.91;;;23.99;64.53
14882;BME280;7533;51.278;12.588;2022-10-03T00:40:35;100576.44;;;23.97;64.83
14882;BME280;7533;51.278;12.588;2022-10-03T00:46:30;100584.41;;;23.99;64.66
14882;BME280;7533;51.278;12.588;2022-10-03T00:51:46;100582.72;;;23.98;64.71
14882;BME280;7533;51.278;12.588;2022-10-03T00:57:07;100581.84;;;23.97;64.49
14882;BME280;7533;51.278;12.588;2022-10-03T01:02:33;100585.53;;;23.96;64.58
14882;BME280;7533;51.278;12.588;2022-10-03T01:07:57;100591.81;;;23.97;64.68
14882;BME280;7533;51.278;12.588;2022-10-03T01:13:21;100594.25;;;24.00;64.40
14882;BME280;7533;51.278;12.588;2022-10-03T01:18:40;100592.66;;;23.97;64.74
14882;BME280;7533;51.278;12.588;2022-10-03T01:29:36;100590.56;;;24.01;64.48
14882;BME280;7533;51.278;12.588;2022-10-03T01:35:06;100591.44;;;24.01;64.34
14882;BME280;7533;51.278;12.588;2022-10-03T01:40:19;100595.97;;;24.01;64.48
14882;BME280;7533;51.278;12.588;2022-10-03T01:45:36;100599.78;;;23.98;64.64
14882;BME280;7533;51.278;12.588;2022-10-03T01:50:49;100600.53;;;24.00;64.41
14882;BME280;7533;51.278;12.588;2022-10-03T01:55:58;100601.28;;;24.02;64.32
14882;BME280;7533;51.278;12.588;2022-10-03T02:01:10;100601.38;;;24.01;64.57
14882;BME280;7533;51.278;12.588;2022-10-03T02:06:22;100606.06;;;23.99;64.38
14882;BME280;7533;51.278;12.588;2022-10-03T02:11:36;100605.94;;;24.00;64.25
14882;BME280;7533;51.278;12.588;2022-10-03T02:16:43;100612.97;;;24.03;64.20
14882;BME280;7533;51.278;12.588;2022-10-03T02:21:48;100621.94;;;24.04;64.14
14882;BME280;7533;51.278;12.588;2022-10-03T02:27:12;100627.34;;;24.04;64.36
14882;BME280;7533;51.278;12.588;2022-10-03T02:32:50;100624.53;;;24.05;64.02
14882;BME280;7533;51.278;12.588;2022-10-03T02:43:58;100637.19;;;24.05;64.06
14882;BME280;7533;51.278;12.588;2022-10-03T02:49:52;100636.19;;;24.06;64.15
14882;BME280;7533;51.278;12.588;2022-10-03T02:55:23;100638.78;;;24.07;64.00
14882;BME280;7533;51.278;12.588;2022-10-03T03:00:38;100644.44;;;24.04;64.33
14882;BME280;7533;51.278;12.588;2022-10-03T03:06:18;100649.72;;;24.06;64.12
14882;BME280;7533;51.278;12.588;2022-10-03T03:17:11;100656.09;;;24.05;64.33
14882;BME280;7533;51.278;12.588;2022-10-03T03:22:32;100656.09;;;24.05;64.39
14882;BME280;7533;51.278;12.588;2022-10-03T03:27:49;100657.94;;;24.04;64.12
14882;BME280;7533;51.278;12.588;2022-10-03T03:33:05;100653.53;;;24.03;64.13
14882;BME280;7533;51.278;12.588;2022-10-03T03:38:23;100667.13;;;24.01;64.39
14882;BME280;7533;51.278;12.588;2022-10-03T03:43:37;100672.53;;;24.01;64.38
14882;BME280;7533;51.278;12.588;2022-10-03T03:49:08;100670.28;;;23.95;64.16
14882;BME280;7533;51.278;12.588;2022-10-03T04:00:07;100671.00;;;23.86;64.76
14882;BME280;7533;51.278;12.588;2022-10-03T04:05:26;100682.88;;;23.84;64.89
14882;BME280;7533;51.278;12.588;2022-10-03T04:10:41;100682.25;;;23.80;64.94
14882;BME280;7533;51.278;12.588;2022-10-03T04:16:03;100689.84;;;23.75;65.19
14882;BME280;7533;51.278;12.588;2022-10-03T04:21:22;100681.06;;;23.71;65.11
14882;BME280;7533;51.278;12.588;2022-10-03T04:26:45;100692.13;;;23.68;65.09
14882;BME280;7533;51.278;12.588;2022-10-03T04:31:58;100692.44;;;23.64;65.39
14882;BME280;7533;51.278;12.588;2022-10-03T04:37:20;100702.56;;;23.60;65.54
14882;BME280;7533;51.278;12.588;2022-10-03T04:42:37;100694.72;;;23.57;65.74
14882;BME280;7533;51.278;12.588;2022-10-03T04:47:50;100698.34;;;23.56;65.68
14882;BME280;7533;51.278;12.588;2022-10-03T04:53:08;100699.56;;;23.52;66.05
14882;BME280;7533;51.278;12.588;2022-10-03T04:58:26;100695.34;;;23.48;65.93
14882;BME280;7533;51.278;12.588;2022-10-03T05:03:39;100696.34;;;23.47;65.91
14882;BME280;7533;51.278;12.588;2022-10-03T05:09:00;100698.25;;;23.45;66.03
14882;BME280;7533;51.278;12.588;2022-10-03T05:14:20;100702.91;;;23.43;66.11
14882;BME280;7533;51.278;12.588;2022-10-03T05:19:42;100713.94;;;23.40;66.20
14882;BME280;7533;51.278;12.588;2022-10-03T05:24:56;100713.19;;;23.38;66.31
14882;BME280;7533;51.278;12.588;2022-10-03T05:30:08;100723.31;;;23.34;66.22
14882;BME280;7533;51.278;12.588;2022-10-03T05:35:26;100723.44;;;23.33;66.42
14882;BME280;7533;51.278;12.588;2022-10-03T05:40:32;100729.81;;;23.32;66.34
14882;BME280;7533;51.278;12.588;2022-10-03T05:45:46;100732.72;;;23.29;66.62
14882;BME280;7533;51.278;12.588;2022-10-03T05:51:12;100731.00;;;23.28;66.34
14882;BME280;7533;51.278;12.588;2022-10-03T05:56:34;100738.03;;;23.30;66.56
14882;BME280;7533;51.278;12.588;2022-10-03T06:02:16;100752.19;;;23.34;66.42
14882;BME280;7533;51.278;12.588;2022-10-03T06:07:29;100751.97;;;23.37;66.24
14882;BME280;7533;51.278;12.588;2022-10-03T06:12:45;100746.25;;;23.41;66.01
14882;BME280;7533;51.278;12.588;2022-10-03T06:18:01;100756.84;;;23.44;66.00
14882;BME280;7533;51.278;12.588;2022-10-03T06:23:16;100760.84;;;23.52;65.70
14882;BME280;7533;51.278;12.588;2022-10-03T06:34:21;100770.38;;;23.57;65.69
14882;BME280;7533;51.278;12.588;2022-10-03T06:45:48;100772.22;;;23.69;65.37
14882;BME280;7533;51.278;12.588;2022-10-03T06:56:47;100791.56;;;23.76;65.17
14882;BME280;7533;51.278;12.588;2022-10-03T07:02:19;100793.28;;;23.77;64.99
14882;BME280;7533;51.278;12.588;2022-10-03T07:08:15;100799.56;;;23.78;65.03
14882;BME280;7533;51.278;12.588;2022-10-03T07:13:46;100800.53;;;23.77;64.90
14882;BME280;7533;51.278;12.588;2022-10-03T07:19:17;100812.97;;;23.79;64.17
14882;BME280;7533;51.278;12.588;2022-10-03T07:25:06;100813.84;;;23.80;64.43
14882;BME280;7533;51.278;12.588;2022-10-03T07:30:16;100813.41;;;23.86;64.31
14882;BME280;7533;51.278;12.588;2022-10-03T07:35:34;100809.06;;;23.83;63.52
14882;BME280;7533;51.278;12.588;2022-10-03T07:41:15;100820.22;;;23.79;63.48
14882;BME280;7533;51.278;12.588;2022-10-03T07:46:57;100831.69;;;23.69;62.19
14882;BME280;7533;51.278;12.588;2022-10-03T07:52:32;100833.84;;;23.64;63.29
14882;BME280;7533;51.278;12.588;2022-10-03T07:58:01;100840.72;;;23.03;59.50
14882;BME280;7533;51.278;12.588;2022-10-03T08:03:42;100846.66;;;22.67;59.60
14882;BME280;7533;51.278;12.588;2022-10-03T08:14:24;100844.13;;;23.32;60.77
14882;BME280;7533;51.278;12.588;2022-10-03T08:19:58;100847.81;;;23.44;60.94
14882;BME280;7533;51.278;12.588;2022-10-03T08:25:22;100850.34;;;23.47;61.44
14882;BME280;7533;51.278;12.588;2022-10-03T08:30:37;100853.47;;;23.54;61.32
14882;BME280;7533;51.278;12.588;2022-10-03T08:41:59;100862.78;;;23.62;61.73
14882;BME280;7533;51.278;12.588;2022-10-03T08:47:22;100867.13;;;23.65;61.82
14882;BME280;7533;51.278;12.588;2022-10-03T08:52:36;100865.84;;;23.70;61.87
14882;BME280;7533;51.278;12.588;2022-10-03T08:58:14;100873.28;;;23.67;62.06
14882;BME280;7533;51.278;12.588;2022-10-03T09:09:33;100871.69;;;23.64;62.58
14882;BME280;7533;51.278;12.588;2022-10-03T09:15:10;100869.72;;;23.66;62.52
14882;BME280;7533;51.278;12.588;2022-10-03T09:20:48;100873.41;;;23.65;62.43
14882;BME280;7533;51.278;12.588;2022-10-03T09:26:32;100877.94;;;23.65;62.64
14882;BME280;7533;51.278;12.588;2022-10-03T09:32:04;100878.91;;;23.64;62.68
14882;BME280;7533;51.278;12.588;2022-10-03T09:37:33;100887.66;;;23.67;62.53
14882;BME280;7533;51.278;12.588;2022-10-03T09:43:22;100885.63;;;23.71;62.65
14882;BME280;7533;51.278;12.588;2022-10-03T09:49:08;100890.59;;;23.77;62.37
14882;BME280;7533;51.278;12.588;2022-10-03T09:54:34;100891.59;;;23.76;62.49
14882;BME280;7533;51.278;12.588;2022-10-03T10:00:05;100882.50;;;23.77;62.59
14882;BME280;7533;51.278;12.588;2022-10-03T10:05:48;100890.28;;;23.82;62.60
14882;BME280;7533;51.278;12.588;2022-10-03T10:11:11;100886.59;;;23.83;62.76
14882;BME280;7533;51.278;12.588;2022-10-03T10:16:37;100884.88;;;23.82;63.03
14882;BME280;7533;51.278;12.588;2022-10-03T10:33:59;100880.78;;;23.89;63.29
14882;BME280;7533;51.278;12.588;2022-10-03T10:45:37;100872.22;;;23.95;62.69
14882;BME280;7533;51.278;12.588;2022-10-03T10:51:06;100868.34;;;23.99;60.58
14882;BME280;7533;51.278;12.588;2022-10-03T10:56:26;100862.28;;;23.95;59.88
14882;BME280;7533;51.278;12.588;2022-10-03T11:02:02;100864.88;;;23.97;58.40
14882;BME280;7533;51.278;12.588;2022-10-03T11:07:56;100878.59;;;23.94;58.39
14882;BME280;7533;51.278;12.588;2022-10-03T11:19:17;100864.44;;;23.90;58.04
14882;BME280;7533;51.278;12.588;2022-10-03T11:36:32;100862.63;;;23.91;56.88
14882;BME280;7533;51.278;12.588;2022-10-03T11:41:45;100870.19;;;23.86;56.78
14882;BME280;7533;51.278;12.588;2022-10-03T11:46:57;100875.78;;;23.83;56.75
14882;BME280;7533;51.278;12.588;2022-10-03T11:52:16;100864.25;;;23.81;57.00
14882;BME280;7533;51.278;12.588;2022-10-03T11:57:27;100875.47;;;23.87;57.12
14882;BME280;7533;51.278;12.588;2022-10-03T12:02:46;100863.81;;;23.87;57.07
14882;BME280;7533;51.278;12.588;2022-10-03T12:08:08;100859.38;;;23.86;56.91
14882;BME280;7533;51.278;12.588;2022-10-03T12:13:37;100861.09;;;23.87;56.30
14882;BME280;7533;51.278;12.588;2022-10-03T12:18:54;100863.69;;;23.88;55.88
14882;BME280;7533;51.278;12.588;2022-10-03T12:24:14;100864.00;;;23.84;55.99
14882;BME280;7533;51.278;12.588;2022-10-03T12:29:20;100852.31;;;23.83;55.74
14882;BME280;7533;51.278;12.588;2022-10-03T12:34:36;100856.00;;;23.82;55.46
14882;BME280;7533;51.278;12.588;2022-10-03T12:39:49;100862.81;;;23.88;55.73
14882;BME280;7533;51.278;12.588;2022-10-03T12:44:58;100866.28;;;23.90;55.60
14882;BME280;7533;51.278;12.588;2022-10-03T12:50:11;100861.63;;;23.92;55.95
14882;BME280;7533;51.278;12.588;2022-10-03T12:55:24;100853.28;;;23.95;55.02
14882;BME280;7533;51.278;12.588;2022-10-03T13:00:33;100853.28;;;23.95;55.15
14882;BME280;7533;51.278;12.588;2022-10-03T13:06:01;100853.28;;;23.95;55.17
14882;BME280;7533;51.278;12.588;2022-10-03T13:11:23;100851.56;;;23.94;55.08
14882;BME280;7533;51.278;12.588;2022-10-03T13:16:31;100845.09;;;23.96;55.72
14882;BME280;7533;51.278;12.588;2022-10-03T13:21:49;100848.22;;;24.03;56.20
14882;BME280;7533;51.278;12.588;2022-10-03T13:27:03;100845.94;;;24.10;56.58
14882;BME280;7533;51.278;12.588;2022-10-03T13:32:31;100846.81;;;23.97;57.03
14882;BME280;7533;51.278;12.588;2022-10-03T13:37:53;100839.78;;;23.95;57.17
14882;BME280;7533;51.278;12.588;2022-10-03T13:43:09;100838.47;;;24.00;57.20
14882;BME280;7533;51.278;12.588;2022-10-03T13:48:19;100842.16;;;23.99;57.85
14882;BME280;7533;51.278;12.588;2022-10-03T13:53:38;100850.59;;;23.95;57.96
14882;BME280;7533;51.278;12.588;2022-10-03T13:58:52;100838.91;;;24.07;57.97
14882;BME280;7533;51.278;12.588;2022-10-03T14:10:02;100848.75;;;24.08;57.94
14882;BME280;7533;51.278;12.588;2022-10-03T14:15:20;100832.75;;;24.05;58.16
14882;BME280;7533;51.278;12.588;2022-10-03T14:20:28;100840.84;;;24.05;58.00
14882;BME280;7533;51.278;12.588;2022-10-03T14:25:39;100843.56;;;24.05;58.28
14882;BME280;7533;51.278;12.588;2022-10-03T14:30:53;100841.59;;;24.07;57.93
14882;BME280;7533;51.278;12.588;2022-10-03T14:36:19;100839.44;;;24.12;58.05
14882;BME280;7533;51.278;12.588;2022-10-03T14:41:40;100846.56;;;24.26;57.88
14882;BME280;7533;51.278;12.588;2022-10-03T14:46:50;100840.50;;;24.48;57.93
14882;BME280;7533;51.278;12.588;2022-10-03T14:51:59;100824.28;;;24.72;57.22
14882;BME280;7533;51.278;12.588;2022-10-03T14:57:16;100834.59;;;24.91;56.77
14882;BME280;7533;51.278;12.588;2022-10-03T15:02:28;100829.69;;;25.09;56.38
14882;BME280;7533;51.278;12.588;2022-10-03T15:07:33;100828.47;;;25.00;56.56
14882;BME280;7533;51.278;12.588;2022-10-03T15:12:40;100833.97;;;24.87;56.77
14882;BME280;7533;51.278;12.588;2022-10-03T15:17:48;100832.00;;;24.89;57.27
14882;BME280;7533;51.278;12.588;2022-10-03T15:22:54;100832.97;;;24.88;57.11
14882;BME280;7533;51.278;12.588;2022-10-03T15:28:04;100829.41;;;24.88;57.21
14882;BME280;7533;51.278;12.588;2022-10-03T15:33:25;100821.56;;;24.72;57.63
14882;BME280;7533;51.278;12.588;2022-10-03T15:38:34;100817.59;;;24.65;58.03
14882;BME280;7533;51.278;12.588;2022-10-03T15:43:44;100811.53;;;24.61;58.05
14882;BME280;7533;51.278;12.588;2022-10-03T15:48:52;100809.69;;;24.62;57.71
14882;BME280;7533;51.278;12.588;2022-10-03T15:53:57;100811.66;;;24.60;58.31
14882;BME280;7533;51.278;12.588;2022-10-03T15:59:06;100809.50;;;24.52;58.38
14882;BME280;7533;51.278;12.588;2022-10-03T16:04:17;100811.94;;;24.68;58.37
14882;BME280;7533;51.278;12.588;2022-10-03T16:09:25;100809.19;;;24.80;58.26
14882;BME280;7533;51.278;12.588;2022-10-03T16:14:38;100814.19;;;24.74;59.25
14882;BME280;7533;51.278;12.588;2022-10-03T16:19:50;100819.44;;;24.15;54.88
14882;BME280;7533;51.278;12.588;2022-10-03T16:25:03;100830.16;;;23.65;54.57
14882;BME280;7533;51.278;12.588;2022-10-03T16:30:18;100816.31;;;23.95;56.07
14882;BME280;7533;51.278;12.588;2022-10-03T16:35:46;100816.06;;;24.11;56.75
14882;BME280;7533;51.278;12.588;2022-10-03T16:40:52;100823.00;;;24.15;57.18
14882;BME280;7533;51.278;12.588;2022-10-03T16:45:59;100830.56;;;24.10;57.60
14882;BME280;7533;51.278;12.588;2022-10-03T16:51:05;100832.31;;;24.11;57.70
14882;BME280;7533;51.278;12.588;2022-10-03T16:56:17;100837.16;;;24.06;58.22
14882;BME280;7533;51.278;12.588;2022-10-03T17:01:29;100848.22;;;24.03;58.58
14882;BME280;7533;51.278;12.588;2022-10-03T17:06:37;100849.19;;;24.15;58.51
14882;BME280;7533;51.278;12.588;2022-10-03T17:11:45;100871.25;;;24.09;58.43
14882;BME280;7533;51.278;12.588;2022-10-03T17:16:55;100866.72;;;24.09;58.56
14882;BME280;7533;51.278;12.588;2022-10-03T17:22:13;100853.94;;;24.11;58.85
14882;BME280;7533;51.278;12.588;2022-10-03T17:27:22;100839.13;;;24.04;59.11
14882;BME280;7533;51.278;12.588;2022-10-03T17:32:34;100837.16;;;24.06;59.10
14882;BME280;7533;51.278;12.588;2022-10-03T17:38:10;100840.31;;;24.00;59.44
14882;BME280;7533;51.278;12.588;2022-10-03T17:43:39;100837.84;;;23.97;59.54
14882;BME280;7533;51.278;12.588;2022-10-03T17:48:52;100832.53;;;23.95;59.71
14882;BME280;7533;51.278;12.588;2022-10-03T17:53:59;100835.03;;;23.98;59.85
14882;BME280;7533;51.278;12.588;2022-10-03T17:59:12;100833.19;;;23.99;59.99
14882;BME280;7533;51.278;12.588;2022-10-03T18:04:17;100830.59;;;23.97;60.02
14882;BME280;7533;51.278;12.588;2022-10-03T18:09:33;100835.97;;;24.10;59.73
14882;BME280;7533;51.278;12.588;2022-10-03T18:15:07;100846.47;;;24.15;59.65
14882;BME280;7533;51.278;12.588;2022-10-03T18:20:27;100847.91;;;24.08;60.01
14882;BME280;7533;51.278;12.588;2022-10-03T18:25:49;100839.25;;;24.02;60.81
14882;BME280;7533;51.278;12.588;2022-10-03T18:31:21;100845.84;;;23.98;61.36
14882;BME280;7533;51.278;12.588;2022-10-03T18:36:28;100840.13;;;24.03;61.05
14882;BME280;7533;51.278;12.588;2022-10-03T18:41:33;100845.41;;;24.05;61.39
14882;BME280;7533;51.278;12.588;2022-10-03T18:46:38;100840.84;;;24.05;61.16
14882;BME280;7533;51.278;12.588;2022-10-03T18:51:44;100839.88;;;24.06;61.38
14882;BME280;7533;51.278;12.588;2022-10-03T18:57:01;100838.81;;;24.09;61.34
14882;BME280;7533;51.278;12.588;2022-10-03T19:02:15;100836.53;;;24.15;61.29
14882;BME280;7533;51.278;12.588;2022-10-03T19:07:21;100834.81;;;24.14;61.22
14882;BME280;7533;51.278;12.588;2022-10-03T19:12:31;100844.84;;;24.12;61.35
14882;BME280;7533;51.278;12.588;2022-10-03T19:17:44;100846.91;;;24.09;61.46
14882;BME280;7533;51.278;12.588;2022-10-03T19:22:59;100837.59;;;24.13;61.45
14882;BME280;7533;51.278;12.588;2022-10-03T19:28:13;100843.00;;;24.13;61.60
14882;BME280;7533;51.278;12.588;2022-10-03T19:33:20;100850.25;;;24.12;61.46
14882;BME280;7533;51.278;12.588;2022-10-03T19:38:29;100845.16;;;24.20;61.40
14882;BME280;7533;51.278;12.588;2022-10-03T19:43:37;100850.47;;;24.22;61.33
14882;BME280;7533;51.278;12.588;2022-10-03T19:48:46;100845.38;;;24.17;61.61
14882;BME280;7533;51.278;12.588;2022-10-03T19:53:52;100842.91;;;24.14;61.69
14882;BME280;7533;51.278;12.588;2022-10-03T19:59:02;100836.72;;;24.12;61.86
14882;BME280;7533;51.278;12.588;2022-10-03T20:04:06;100837.59;;;24.13;61.88
14882;BME280;7533;51.278;12.588;2022-10-03T20:09:19;100835.97;;;24.10;62.04
14882;BME280;7533;51.278;12.588;2022-10-03T20:14:30;100836.84;;;24.11;61.67
14882;BME280;7533;51.278;12.588;2022-10-03T20:24:54;100832.53;;;24.08;61.83
14882;BME280;7533;51.278;12.588;2022-10-03T20:30:05;100829.47;;;24.13;61.71
14882;BME280;7533;51.278;12.588;2022-10-03T20:35:12;100827.00;;;24.10;61.93
14882;BME280;7533;51.278;12.588;2022-10-03T20:40:24;100832.53;;;24.08;62.08
14882;BME280;7533;51.278;12.588;2022-10-03T20:45:32;100831.69;;;24.08;62.18
14882;BME280;7533;51.278;12.588;2022-10-03T20:50:42;100830.78;;;24.07;61.94
14882;BME280;7533;51.278;12.588;2022-10-03T20:55:49;100828.97;;;24.08;62.22
14882;BME280;7533;51.278;12.588;2022-10-03T21:00:58;100826.28;;;24.08;61.93
14882;BME280;7533;51.278;12.588;2022-10-03T21:06:13;100822.59;;;24.09;62.15
14882;BME280;7533;51.278;12.588;2022-10-03T21:11:21;100828.84;;;24.09;62.23
14882;BME280;7533;51.278;12.588;2022-10-03T21:16:28;100825.28;;;24.09;62.14
14882;BME280;7533;51.278;12.588;2022-10-03T21:21:34;100823.44;;;24.09;62.36
14882;BME280;7533;51.278;12.588;2022-10-03T21:26:45;100822.47;;;24.10;62.13
14882;BME280;7533;51.278;12.588;2022-10-03T21:31:57;100818.25;;;24.06;62.23
14882;BME280;7533;51.278;12.588;2022-10-03T21:37:06;100818.03;;;24.09;62.09
14882;BME280;7533;51.278;12.588;2022-10-03T21:42:18;100823.66;;;24.06;62.17
14882;BME280;7533;51.278;12.588;2022-10-03T21:47:35;100817.19;;;24.09;62.34
14882;BME280;7533;51.278;12.588;2022-10-03T21:53:08;100818.25;;;24.06;62.21
14882;BME280;7533;51.278;12.588;2022-10-03T21:58:24;100806.44;;;24.07;62.42
14882;BME280;7533;51.278;12.588;2022-10-03T22:03:40;100809.38;;;24.04;62.41
14882;BME280;7533;51.278;12.588;2022-10-03T22:08:47;100813.06;;;24.03;62.39
14882;BME280;7533;51.278;12.588;2022-10-03T22:13:58;100811.44;;;24.00;62.46
14882;BME280;7533;51.278;12.588;2022-10-03T22:19:18;100805.03;;;24.01;62.43
14882;BME280;7533;51.278;12.588;2022-10-03T22:24:30;100807.13;;;23.98;62.46
14882;BME280;7533;51.278;12.588;2022-10-03T22:29:46;100809.06;;;23.96;62.53
14882;BME280;7533;51.278;12.588;2022-10-03T22:35:02;100811.13;;;23.92;62.65
14882;BME280;7533;51.278;12.588;2022-10-03T22:40:08;100807.66;;;23.90;62.66
14882;BME280;7533;51.278;12.588;2022-10-03T22:45:12;100810.72;;;23.86;62.73
14882;BME280;7533;51.278;12.588;2022-10-03T22:50:25;100815.47;;;23.82;63.12
14882;BME280;7533;51.278;12.588;2022-10-03T22:55:30;100809.63;;;23.75;63.07
14882;BME280;7533;51.278;12.588;2022-10-03T23:00:34;100803.69;;;23.70;63.31
14882;BME280;7533;51.278;12.588;2022-10-03T23:11:11;100793.59;;;23.60;63.76
14882;BME280;7533;51.278;12.588;2022-10-03T23:16:29;100800.28;;;23.54;63.77
14882;BME280;7533;51.278;12.588;2022-10-03T23:21:44;100796.28;;;23.47;64.20
14882;BME280;7533;51.278;12.588;2022-10-03T23:32:49;100802.63;;;23.33;64.52
14882;BME280;7533;51.278;12.588;2022-10-03T23:37:54;100800.25;;;23.29;64.71
14882;BME280;7533;51.278;12.588;2022-10-03T23:42:59;100804.16;;;23.25;64.85
14882;BME280;7533;51.278;12.588;2022-10-03T23:48:06;100808.03;;;23.20;64.89
14882;BME280;7533;51.278;12.588;2022-10-03T23:53:19;100803.91;;;23.15;65.13
14882;BME280;7533;51.278;12.588;2022-10-03T23:58:27;100813.97;;;23.13;65.15
